Time;durP1;ratioP1;P1;durP2;ratioP2;P2;SDS_P1;SDS_P2;PMS_P1;PMS_P2;Temp;Humidity;BMP_temperature;BMP_pressure;BME280_temperature;BME280_humidity;BME280_pressure;Samples;Min_cycle;Max_cycle;Signal;HPM_P1;HPM_P2
2022/12/18 00:01:18;;;;;;;76.78;26.10;;;;;;;0.62;68.47;102856.66;5052946;28;20025;-38
2022/12/18 00:03:44;;;;;;;78.28;26.45;;;;;;;0.85;67.50;102872.34;5053006;28;20025;-39
2022/12/18 00:06:10;;;;;;;79.00;26.00;;;;;;;0.72;68.04;102866.94;5052075;28;20035;-43
2022/12/18 00:08:35;;;;;;;78.43;27.48;;;;;;;1.10;66.54;102858.19;5051472;28;20025;-43
2022/12/18 00:11:10;;;;;;;73.75;25.50;;;;;;;0.63;67.60;102861.91;5052763;28;20500;-41
2022/12/18 00:13:35;;;;;;;72.75;25.35;;;;;;;0.99;67.25;102861.53;5053717;28;20055;-43
2022/12/18 00:16:06;;;;;;;70.97;24.75;;;;;;;1.16;66.69;102856.13;5053843;28;20497;-41
2022/12/18 00:18:32;;;;;;;71.50;25.05;;;;;;;1.20;66.90;102852.16;5053922;28;20047;-43
2022/12/18 00:21:03;;;;;;;69.75;25.15;;;;;;;0.81;67.86;102858.34;5053396;28;20024;-43
2022/12/18 00:23:30;;;;;;;77.00;25.13;;;;;;;1.03;67.98;102857.56;5054382;28;20024;-42
2022/12/18 00:26:00;;;;;;;77.40;25.98;;;;;;;0.99;67.84;102855.50;5053066;28;20087;-40
2022/12/18 00:28:25;;;;;;;81.07;26.80;;;;;;;1.11;67.16;102851.38;5052883;28;20146;-43
2022/12/18 00:30:51;;;;;;;74.88;26.20;;;;;;;1.00;68.42;102845.34;5052628;28;20059;-40
2022/12/18 00:33:17;;;;;;;80.95;26.58;;;;;;;0.73;69.34;102843.94;5053324;28;20438;-42
2022/12/18 00:35:42;;;;;;;83.25;27.45;;;;;;;1.25;67.41;102847.38;5053213;28;20029;-41
2022/12/18 00:38:08;;;;;;;83.53;26.30;;;;;;;1.26;67.01;102846.63;5052974;28;20103;-41
2022/12/18 00:40:33;;;;;;;83.70;26.83;;;;;;;0.82;68.19;102842.16;5053232;28;20031;-38
2022/12/18 00:42:58;;;;;;;82.88;25.92;;;;;;;0.38;69.50;102846.09;5052890;28;20112;-42
2022/12/18 00:45:29;;;;;;;79.82;24.88;;;;;;;0.73;68.59;102854.22;5052721;28;20469;-41
2022/12/18 00:47:56;;;;;;;85.72;26.92;;;;;;;0.73;68.44;102851.63;5051786;28;20024;-42
2022/12/18 00:50:22;;;;;;;78.88;25.65;;;;;;;0.87;68.49;102855.38;5051013;28;20584;-41
2022/12/18 00:52:48;;;;;;;76.25;25.33;;;;;;;0.92;68.37;102855.75;5050883;28;20091;-40
2022/12/18 00:55:14;;;;;;;91.10;25.95;;;;;;;1.25;67.49;102857.66;5051157;28;20029;-41
2022/12/18 00:57:40;;;;;;;87.22;26.60;;;;;;;0.66;69.22;102854.50;5051296;28;20040;-43
2022/12/18 01:00:07;;;;;;;83.68;26.80;;;;;;;1.01;68.24;102860.00;5051906;28;20021;-42
2022/12/18 01:02:33;;;;;;;83.68;26.35;;;;;;;1.13;66.58;102852.41;5051111;28;20033;-39
2022/12/18 01:04:58;;;;;;;81.47;26.52;;;;;;;1.24;66.86;102859.31;5049946;28;20117;-40
2022/12/18 01:07:23;;;;;;;84.18;25.70;;;;;;;0.98;67.78;102858.81;5050321;28;20098;-44
2022/12/18 01:09:49;;;;;;;84.53;26.20;;;;;;;1.17;67.52;102872.44;5052088;28;20025;-40
2022/12/18 01:12:14;;;;;;;81.05;26.58;;;;;;;1.19;66.81;102870.91;5052290;28;20390;-41
2022/12/18 01:14:40;;;;;;;80.05;25.73;;;;;;;1.25;66.58;102871.41;5050069;28;20493;-41
2022/12/18 01:17:05;;;;;;;86.95;26.75;;;;;;;1.27;67.18;102867.31;5049986;28;20032;-38
2022/12/18 01:19:30;;;;;;;76.35;25.45;;;;;;;1.42;65.63;102870.22;5050301;28;20104;-41
2022/12/18 01:21:56;;;;;;;79.93;25.27;;;;;;;1.19;66.15;102869.22;5051282;28;20025;-40
2022/12/18 01:24:21;;;;;;;75.20;25.45;;;;;;;1.22;66.73;102872.03;5053973;28;20021;-40
2022/12/18 01:26:46;;;;;;;83.82;25.80;;;;;;;1.19;66.58;102876.03;5054361;28;20503;-41
2022/12/18 01:29:12;;;;;;;81.13;25.92;;;;;;;1.25;66.63;102875.63;5052746;28;20498;-41
2022/12/18 01:31:37;;;;;;;84.07;26.08;;;;;;;1.20;66.57;102867.56;5050298;28;20094;-43
2022/12/18 01:34:04;;;;;;;87.10;26.65;;;;;;;1.07;67.54;102868.22;5049979;28;20524;-41
2022/12/18 01:36:35;;;;;;;81.85;25.38;;;;;;;1.15;67.05;102872.34;5049966;28;20104;-43
2022/12/18 01:39:04;;;;;;;84.40;27.45;;;;;;;1.28;66.83;102868.19;5053273;28;20099;-43
2022/12/18 01:42:01;;;;;;;82.55;27.40;;;;;;;1.17;66.89;102875.91;5053399;28;20070;-42
2022/12/18 01:44:55;;;;;;;82.15;25.70;;;;;;;1.22;67.26;102877.16;5053760;28;20453;-41
2022/12/18 01:47:41;;;;;;;76.55;25.40;;;;;;;1.11;67.72;102879.63;5053460;28;20102;-43
2022/12/18 01:50:22;;;;;;;84.43;25.15;;;;;;;0.97;67.78;102888.78;5053698;28;20074;-41
2022/12/18 01:53:01;;;;;;;76.00;24.27;;;;;;;1.02;67.41;102889.16;5053795;28;20485;-41
2022/12/18 01:55:36;;;;;;;97.05;25.40;;;;;;;0.95;67.55;102890.31;5053975;28;20079;-39
2022/12/18 01:58:01;;;;;;;77.55;24.67;;;;;;;0.76;67.51;102893.00;5053995;28;20431;-41
2022/12/18 02:00:27;;;;;;;82.60;24.60;;;;;;;0.53;68.43;102885.00;5053291;28;20104;-40
2022/12/18 02:02:53;;;;;;;96.15;24.58;;;;;;;0.27;69.73;102908.41;5053752;28;20096;-40
2022/12/18 02:05:34;;;;;;;71.65;23.58;;;;;;;0.56;68.49;102899.75;5053921;28;20222;-40
2022/12/18 02:08:38;;;;;;;74.63;23.77;;;;;;;0.79;67.82;102900.94;5053862;28;20528;-45
2022/12/18 02:11:14;;;;;;;72.95;23.45;;;;;;;0.78;67.73;102899.16;5054160;28;20099;-40
2022/12/18 02:13:52;;;;;;;77.57;24.13;;;;;;;0.97;67.36;102890.44;5055850;28;20435;-42
2022/12/18 02:16:39;;;;;;;69.57;22.95;;;;;;;0.82;67.33;102901.22;5055754;28;20071;-39
2022/12/18 02:19:18;;;;;;;69.28;23.55;;;;;;;0.68;67.63;102893.09;5054858;28;20444;-40
2022/12/18 02:22:06;;;;;;;81.95;25.13;;;;;;;0.67;67.82;102892.19;5055243;28;20031;-41
2022/12/18 02:24:31;;;;;;;74.88;24.15;;;;;;;0.89;66.96;102887.22;5055324;28;20196;-39
2022/12/18 02:27:09;;;;;;;76.97;24.45;;;;;;;0.90;67.89;102899.31;5056650;28;20103;-38
2022/12/18 02:29:46;;;;;;;75.72;24.23;;;;;;;0.85;67.00;102899.69;5055884;28;20100;-41
2022/12/18 02:32:17;;;;;;;68.63;23.95;;;;;;;0.66;67.95;102897.22;5056158;28;20025;-41
2022/12/18 02:34:43;;;;;;;65.57;23.05;;;;;;;0.31;68.28;102889.94;5056846;28;20108;-43
2022/12/18 02:37:13;;;;;;;67.82;23.75;;;;;;;0.73;67.71;102895.28;5057169;28;20457;-44
2022/12/18 02:39:41;;;;;;;68.63;22.48;;;;;;;0.75;67.45;102877.44;5056551;28;20021;-40
2022/12/18 02:42:10;;;;;;;72.20;23.48;;;;;;;0.61;67.56;102876.28;5057630;28;20052;-41
2022/12/18 02:44:43;;;;;;;64.22;22.23;;;;;;;0.24;67.98;102862.00;5057294;28;20021;-41
2022/12/18 02:47:11;;;;;;;69.27;23.77;;;;;;;0.47;67.85;102851.13;5056843;28;20147;-42
2022/12/18 02:49:44;;;;;;;71.60;23.17;;;;;;;0.78;67.08;102855.53;5054308;28;20013;-41
2022/12/18 02:52:43;;;;;;;71.00;22.58;;;;;;;0.42;67.76;102857.53;5058531;28;20028;-41
2022/12/18 02:55:14;;;;;;;67.18;22.40;;;;;;;0.50;67.48;102848.81;5057056;28;20021;-42
2022/12/18 02:58:11;;;;;;;65.22;21.70;;;;;;;0.38;67.40;102840.06;5055558;28;20028;-40
2022/12/18 03:00:53;;;;;;;59.97;20.58;;;;;;;0.16;67.93;102847.59;5054617;28;20300;-43
2022/12/18 03:03:38;;;;;;;61.00;21.20;;;;;;;0.39;66.80;102842.78;5052017;28;20025;-40
2022/12/18 03:06:12;;;;;;;62.28;20.10;;;;;;;0.23;67.50;102841.34;5052031;28;20032;-40
2022/12/18 03:08:42;;;;;;;60.85;21.15;;;;;;;0.44;67.33;102837.13;5052067;28;20017;-40
2022/12/18 03:11:10;;;;;;;59.60;21.15;;;;;;;0.50;66.78;102840.22;5051585;28;20025;-40
2022/12/18 03:13:44;;;;;;;55.28;20.85;;;;;;;0.52;67.18;102834.44;5051739;28;20032;-40
2022/12/18 03:16:14;;;;;;;62.92;20.27;;;;;;;-0.09;68.44;102835.97;5051914;28;20028;-40
2022/12/18 03:18:51;;;;;;;61.22;21.05;;;;;;;0.21;67.23;102830.94;5051806;28;20036;-41
2022/12/18 03:21:24;;;;;;;55.38;21.20;;;;;;;0.49;66.07;102834.16;5051867;28;20374;-41
2022/12/18 03:23:52;;;;;;;52.22;20.35;;;;;;;0.48;66.38;102834.06;5051785;28;20075;-41
2022/12/18 03:26:22;;;;;;;57.67;20.73;;;;;;;0.45;66.50;102837.25;5052041;28;20029;-42
2022/12/18 03:28:53;;;;;;;59.13;21.10;;;;;;;0.23;66.66;102834.53;5051918;28;20387;-40
2022/12/18 03:31:22;;;;;;;62.28;21.40;;;;;;;0.24;66.39;102832.88;5051183;28;20025;-40
2022/12/18 03:33:53;;;;;;;57.58;20.60;;;;;;;0.33;66.05;102836.22;5075790;22;20037;-42
2022/12/18 03:36:19;;;;;;;62.95;22.27;;;;;;;0.20;66.46;102830.81;5054581;28;20021;-45
2022/12/18 03:38:44;;;;;;;62.20;21.63;;;;;;;-0.01;66.44;102829.88;5053177;28;20140;-50
2022/12/18 03:41:34;;;;;;;57.08;20.25;;;;;;;-0.06;66.88;102828.53;5054109;28;20025;-42
2022/12/18 03:44:26;;;;;;;54.05;18.35;;;;;;;-0.04;66.32;102827.03;5054048;28;20067;-43
2022/12/18 03:47:07;;;;;;;52.20;19.48;;;;;;;0.13;66.17;102819.13;5053868;28;20029;-44
2022/12/18 03:49:53;;;;;;;60.25;20.52;;;;;;;0.05;66.44;102825.28;5053336;28;20179;-48
2022/12/18 03:52:28;;;;;;;57.45;20.67;;;;;;;0.02;66.22;102817.28;5037875;28;20047;-44
2022/12/18 03:54:54;;;;;;;;;;;;;;;0.04;66.67;102814.88;5052309;28;20074;-43
2022/12/18 03:57:22;;;;;;;57.50;19.27;;;;;;;-0.01;66.44;102820.50;5051784;28;19909;-43
2022/12/18 03:59:55;;;;;;;61.65;21.13;;;;;;;0.00;66.72;102821.41;5051024;28;20043;-45
2022/12/18 04:02:23;;;;;;;56.67;20.30;;;;;;;0.10;66.17;102817.97;5051258;28;20358;-42
2022/12/18 04:04:53;;;;;;;60.90;20.83;;;;;;;-0.17;66.21;102826.72;5050436;28;20025;-45
2022/12/18 04:07:19;;;;;;;64.85;21.25;;;;;;;-0.50;67.26;102825.56;5051512;28;20029;-44
2022/12/18 04:09:48;;;;;;;58.10;20.92;;;;;;;-0.45;66.56;102826.88;5051777;28;20462;-46
2022/12/18 04:12:13;;;;;;;60.03;20.30;;;;;;;-0.44;66.83;102828.69;5051388;28;20025;-44
2022/12/18 04:14:38;;;;;;;62.28;21.70;;;;;;;-0.47;66.48;102819.81;5051369;28;20033;-46
2022/12/18 04:17:04;;;;;;;56.95;20.38;;;;;;;-0.41;66.01;102826.38;5051186;28;20029;-41
2022/12/18 04:19:29;;;;;;;65.65;22.00;;;;;;;-0.25;65.76;102823.50;5050860;28;20106;-42
2022/12/18 04:21:54;;;;;;;61.33;20.73;;;;;;;-0.19;66.09;102825.69;5050536;28;20027;-46
2022/12/18 04:24:20;;;;;;;60.28;21.08;;;;;;;-0.22;65.64;102831.44;5051044;28;20031;-42
2022/12/18 04:26:45;;;;;;;63.30;20.75;;;;;;;-0.18;65.51;102833.50;5051230;28;20028;-42
2022/12/18 04:29:11;;;;;;;60.10;21.23;;;;;;;-0.18;65.41;102842.84;5050791;28;20017;-43
2022/12/18 04:31:36;;;;;;;63.13;21.67;;;;;;;-0.21;65.54;102837.47;5051128;28;20025;-43
2022/12/18 04:34:02;;;;;;;61.88;20.40;;;;;;;-0.57;66.06;102833.47;5050609;28;20429;-44
2022/12/18 04:36:27;;;;;;;59.42;20.85;;;;;;;-0.44;66.09;102840.59;5050836;28;20389;-49
2022/12/18 04:38:52;;;;;;;56.17;20.15;;;;;;;-0.48;65.74;102828.25;5050648;28;20029;-42
2022/12/18 04:41:18;;;;;;;63.38;21.23;;;;;;;-0.60;65.86;102846.00;5050095;28;20027;-45
2022/12/18 04:43:43;;;;;;;62.53;21.50;;;;;;;-0.78;65.98;102846.00;5050418;28;20440;-42
2022/12/18 04:46:08;;;;;;;63.20;21.70;;;;;;;-0.73;65.70;102847.34;5050483;28;20057;-42
2022/12/18 04:48:36;;;;;;;59.42;21.05;;;;;;;-0.58;65.37;102846.13;5050431;28;20067;-44
2022/12/18 04:51:02;;;;;;;57.20;20.95;;;;;;;-0.66;65.67;102839.41;5050218;28;20025;-41
2022/12/18 04:53:27;;;;;;;57.28;20.30;;;;;;;-0.59;65.02;102842.66;5050340;28;20075;-41
2022/12/18 04:56:07;;;;;;;59.72;20.77;;;;;;;-0.58;64.69;102841.00;5048934;28;20028;-43
2022/12/18 04:58:33;;;;;;;59.05;20.83;;;;;;;-0.63;64.57;102839.72;5050024;28;20025;-44
2022/12/18 05:00:58;;;;;;;55.63;19.33;;;;;;;-0.70;64.86;102837.34;5049885;28;20112;-43
2022/12/18 05:03:23;;;;;;;54.78;20.48;;;;;;;-0.68;64.77;102831.63;5050828;28;20413;-43
2022/12/18 05:05:50;;;;;;;60.28;20.90;;;;;;;-0.74;65.35;102825.06;5054690;28;20025;-46
2022/12/18 05:08:16;;;;;;;56.17;20.58;;;;;;;-0.95;65.62;102829.13;5052096;28;20033;-45
2022/12/18 05:10:41;;;;;;;53.25;20.67;;;;;;;-0.76;65.23;102841.94;5048511;28;20094;-48
2022/12/18 05:13:06;;;;;;;54.47;20.20;;;;;;;-0.81;64.88;102838.97;5049196;28;20033;-43
2022/12/18 05:15:32;;;;;;;58.40;20.70;;;;;;;-0.77;64.83;102838.47;5050201;28;20427;-43
2022/12/18 05:17:58;;;;;;;56.22;20.60;;;;;;;-0.80;64.95;102835.66;5050228;28;20056;-44
2022/12/18 05:20:24;;;;;;;57.47;20.88;;;;;;;-0.95;65.67;102831.69;5050824;28;20064;-45
2022/12/18 05:22:50;;;;;;;54.75;20.80;;;;;;;-0.97;65.60;102830.63;5050165;28;20070;-46
2022/12/18 05:25:16;;;;;;;55.38;21.38;;;;;;;-0.86;65.56;102827.41;5050334;28;20079;-47
2022/12/18 05:27:41;;;;;;;52.00;19.80;;;;;;;-0.83;64.98;102822.56;5051250;28;20503;-43
2022/12/18 05:30:08;;;;;;;53.95;20.10;;;;;;;-0.98;65.43;102821.19;5049591;28;20021;-43
2022/12/18 05:32:33;;;;;;;57.70;19.90;;;;;;;-0.92;65.18;102822.66;5049502;28;20025;-42
2022/12/18 05:34:58;;;;;;;58.35;21.23;;;;;;;-0.99;65.32;102825.41;5049673;28;20028;-44
2022/12/18 05:37:24;;;;;;;60.17;21.17;;;;;;;-1.07;65.97;102823.81;5049512;28;20075;-42
2022/12/18 05:39:49;;;;;;;49.95;20.05;;;;;;;-0.98;65.56;102810.94;5050017;28;20041;-41
2022/12/18 05:42:14;;;;;;;55.35;20.60;;;;;;;-1.24;65.58;102816.25;5048959;28;20021;-45
2022/12/18 05:44:40;;;;;;;53.50;20.25;;;;;;;-1.06;65.69;102815.38;5049777;28;20103;-42
2022/12/18 05:47:05;;;;;;;55.90;20.50;;;;;;;-1.34;66.47;102808.47;5051896;28;20029;-43
2022/12/18 05:49:31;;;;;;;54.63;20.30;;;;;;;-1.02;65.58;102809.75;5052768;28;20067;-43
2022/12/18 05:51:56;;;;;;;51.20;19.65;;;;;;;-0.91;65.10;102803.94;5052760;28;20032;-44
2022/12/18 05:54:21;;;;;;;53.45;20.38;;;;;;;-0.83;65.19;102814.88;5050372;28;20029;-44
2022/12/18 05:56:47;;;;;;;56.05;20.80;;;;;;;-1.02;64.75;102808.84;5050730;28;20021;-44
2022/12/18 05:59:12;;;;;;;55.38;20.23;;;;;;;-0.91;64.76;102816.72;5050068;28;20032;-44
2022/12/18 06:01:37;;;;;;;54.95;20.10;;;;;;;-0.93;64.88;102810.59;5054317;28;20043;-42
2022/12/18 06:04:03;;;;;;;53.78;20.33;;;;;;;-0.96;65.03;102799.16;5053981;28;20085;-42
2022/12/18 06:06:28;;;;;;;55.95;19.95;;;;;;;-0.90;64.77;102803.19;5050256;28;20025;-42
2022/12/18 06:08:54;;;;;;;56.35;20.95;;;;;;;-0.93;64.75;102802.91;5049316;28;20477;-41
2022/12/18 06:11:26;;;;;;;56.03;20.85;;;;;;;-0.95;65.07;102804.44;5049347;28;20021;-45
2022/12/18 06:13:53;;;;;;;59.85;21.40;;;;;;;-0.91;65.26;102792.78;5049793;28;20520;-42
2022/12/18 06:16:19;;;;;;;53.50;20.30;;;;;;;-1.28;65.51;102791.16;5049726;28;20025;-45
2022/12/18 06:18:44;;;;;;;52.65;20.58;;;;;;;-1.18;65.54;102786.09;5049538;28;20032;-43
2022/12/18 06:21:10;;;;;;;50.75;19.83;;;;;;;-1.02;65.09;102778.13;5049245;28;20025;-43
2022/12/18 06:23:35;;;;;;;57.17;21.17;;;;;;;-1.07;65.03;102776.84;5050829;28;20075;-44
2022/12/18 06:26:06;;;;;;;52.38;20.27;;;;;;;-1.00;64.52;102781.75;5052949;28;20059;-43
2022/12/18 06:28:31;;;;;;;50.33;19.88;;;;;;;-1.08;64.86;102780.16;5053100;28;20503;-47
2022/12/18 06:30:57;;;;;;;59.70;20.48;;;;;;;-1.14;65.18;102780.50;5052467;28;20017;-43
2022/12/18 06:33:26;;;;;;;51.95;20.40;;;;;;;-1.02;64.46;102779.03;5052481;28;20052;-45
2022/12/18 06:35:51;;;;;;;52.72;20.40;;;;;;;-1.08;64.43;102767.34;5052783;28;20074;-48
2022/12/18 06:38:17;;;;;;;53.63;19.77;;;;;;;-1.28;65.25;102765.56;5052555;28;20490;-43
2022/12/18 06:40:42;;;;;;;56.95;20.50;;;;;;;-1.14;64.86;102766.78;5052682;28;20013;-44
2022/12/18 06:43:08;;;;;;;51.42;20.15;;;;;;;-1.04;64.39;102766.88;5052618;28;20124;-42
2022/12/18 06:45:33;;;;;;;53.90;20.35;;;;;;;-1.47;65.57;102759.53;5052888;28;20035;-42
2022/12/18 06:47:59;;;;;;;47.95;19.98;;;;;;;-1.18;64.94;102755.41;5053123;28;20025;-42
2022/12/18 06:50:24;;;;;;;50.55;19.42;;;;;;;-1.39;64.89;102754.34;5052835;28;20016;-43
2022/12/18 06:52:49;;;;;;;52.08;19.60;;;;;;;-1.49;65.57;102754.28;5052763;28;20053;-42
2022/12/18 06:55:15;;;;;;;52.17;20.15;;;;;;;-1.33;64.82;102748.88;5053822;28;20438;-46
2022/12/18 06:57:40;;;;;;;47.45;18.85;;;;;;;-1.20;64.54;102740.66;5057653;28;20036;-41
2022/12/18 07:00:06;;;;;;;47.25;19.05;;;;;;;-1.19;64.22;102732.22;5058447;28;20036;-46
2022/12/18 07:02:31;;;;;;;45.95;19.25;;;;;;;-1.20;64.23;102723.63;5054863;28;20210;-46
2022/12/18 07:04:57;;;;;;;49.05;19.02;;;;;;;-1.18;63.80;102729.81;5054417;28;20500;-43
2022/12/18 07:07:22;;;;;;;49.22;19.25;;;;;;;-1.39;64.53;102733.88;5059012;28;20092;-42
2022/12/18 07:09:49;;;;;;;49.53;19.35;;;;;;;-1.27;64.21;102732.41;5059575;28;20024;-47
2022/12/18 07:12:14;;;;;;;48.10;19.20;;;;;;;-1.44;64.38;102721.44;5057634;28;20024;-43
2022/12/18 07:14:40;;;;;;;49.58;18.77;;;;;;;-1.49;64.49;102725.25;5058710;28;20021;-48
2022/12/18 07:17:05;;;;;;;45.80;18.35;;;;;;;-1.49;64.39;102708.22;5054864;28;20024;-43
2022/12/18 07:19:30;;;;;;;45.40;18.27;;;;;;;-1.82;65.07;102705.16;5053425;28;20021;-42
2022/12/18 07:21:55;;;;;;;43.88;17.98;;;;;;;-1.61;64.84;102691.78;5052270;28;20020;-43
2022/12/18 07:24:21;;;;;;;43.67;16.55;;;;;;;-1.91;64.73;102676.19;5052817;28;20072;-43
2022/12/18 07:26:46;;;;;;;45.40;18.15;;;;;;;-1.58;65.05;102671.59;5052393;28;20056;-41
2022/12/18 07:29:12;;;;;;;45.25;17.35;;;;;;;-1.60;64.41;102662.91;5050845;28;20028;-43
2022/12/18 07:31:37;;;;;;;42.92;17.33;;;;;;;-1.40;64.31;102669.78;5051675;28;20535;-43
2022/12/18 07:34:02;;;;;;;44.47;17.35;;;;;;;-1.66;64.38;102659.78;5051602;28;20033;-43
2022/12/18 07:36:28;;;;;;;39.75;17.83;;;;;;;-1.57;64.58;102665.72;5051446;28;20450;-43
2022/12/18 07:38:53;;;;;;;44.25;16.95;;;;;;;-1.64;64.78;102659.16;5052473;28;20132;-45
2022/12/18 07:41:19;;;;;;;43.15;17.02;;;;;;;-1.64;64.40;102663.34;5052300;28;20040;-41
2022/12/18 07:43:45;;;;;;;40.80;16.42;;;;;;;-1.67;64.90;102675.88;5050916;28;20028;-43
2022/12/18 07:46:15;;;;;;;41.28;16.88;;;;;;;-1.65;64.91;102675.25;5051645;28;20453;-44
2022/12/18 07:48:41;;;;;;;40.65;17.73;;;;;;;-1.63;63.99;102678.84;5051308;28;20067;-43
2022/12/18 07:51:07;;;;;;;42.38;17.48;;;;;;;-1.48;63.93;102675.88;5051092;28;20433;-43
2022/12/18 07:53:34;;;;;;;39.67;16.67;;;;;;;-1.92;64.55;102670.19;5051824;28;20082;-42
2022/12/18 07:56:03;;;;;;;43.47;17.02;;;;;;;-1.46;63.92;102666.66;5051646;28;20016;-43
2022/12/18 07:58:29;;;;;;;42.33;17.30;;;;;;;-1.33;63.59;102669.56;5051309;28;20462;-42
2022/12/18 08:01:05;;;;;;;40.60;17.13;;;;;;;-1.32;63.16;102664.59;5052299;28;20059;-43
2022/12/18 08:03:31;;;;;;;41.60;16.70;;;;;;;-1.33;63.42;102672.13;5061450;28;20025;-42
2022/12/18 08:06:04;;;;;;;37.92;16.00;;;;;;;-1.53;64.24;102666.91;5062332;28;20052;-46
2022/12/18 08:08:29;;;;;;;40.13;17.05;;;;;;;-1.68;64.04;102667.31;5061164;28;20059;-43
2022/12/18 08:10:55;;;;;;;40.50;17.30;;;;;;;-1.49;63.67;102661.28;5058187;28;20116;-48
2022/12/18 08:13:21;;;;;;;41.53;17.02;;;;;;;-1.38;63.57;102660.59;5057342;28;20020;-44
2022/12/18 08:16:02;;;;;;;40.90;16.38;;;;;;;-1.39;63.34;102669.91;5053659;28;20053;-41
2022/12/18 08:18:27;;;;;;;42.22;16.83;;;;;;;-1.56;64.06;102657.28;5053883;28;20500;-45
2022/12/18 08:20:53;;;;;;;38.90;15.02;;;;;;;-1.87;64.10;102657.81;5053974;28;20017;-42
2022/12/18 08:23:18;;;;;;;40.15;16.95;;;;;;;-1.87;64.66;102653.63;5051294;28;20474;-43
2022/12/18 08:25:44;;;;;;;36.63;16.15;;;;;;;-1.49;64.16;102648.50;5052229;28;20028;-47
2022/12/18 08:28:10;;;;;;;38.50;16.17;;;;;;;-1.50;64.30;102656.94;5052021;28;20021;-44
2022/12/18 08:30:35;;;;;;;36.40;16.42;;;;;;;-1.18;63.30;102645.34;5051175;28;20036;-43
2022/12/18 08:33:00;;;;;;;38.00;16.23;;;;;;;-1.46;63.27;102656.44;5050902;28;20371;-41
2022/12/18 08:35:26;;;;;;;39.47;16.42;;;;;;;-1.37;63.70;102660.72;5051385;28;20081;-41
2022/12/18 08:37:52;;;;;;;40.15;16.55;;;;;;;-1.39;63.69;102666.47;5051602;28;20036;-45
2022/12/18 08:40:18;;;;;;;34.92;15.75;;;;;;;-1.16;63.22;102674.56;5051418;28;20108;-40
2022/12/18 08:45:27;;;;;;;38.60;16.45;;;;;;;-0.90;62.50;102702.44;5050684;28;20048;-43
2022/12/18 08:47:53;;;;;;;39.97;16.52;;;;;;;-0.86;62.58;102700.28;5051177;28;20469;-40
2022/12/18 08:50:19;;;;;;;36.97;15.93;;;;;;;-0.79;62.34;102698.28;5050710;28;20057;-46
2022/12/18 08:52:45;;;;;;;37.63;17.20;;;;;;;-0.84;62.48;102692.72;5051701;28;20532;-40
2022/12/18 08:55:10;;;;;;;36.78;16.08;;;;;;;-1.13;62.81;102691.81;5051672;28;20106;-43
2022/12/18 08:57:35;;;;;;;36.88;16.23;;;;;;;-1.16;62.80;102704.34;5050791;28;20024;-46
2022/12/18 09:00:01;;;;;;;36.13;16.05;;;;;;;-1.11;63.45;102701.44;5050507;28;20029;-45
2022/12/18 09:02:28;;;;;;;37.90;16.02;;;;;;;-1.22;63.65;102703.03;5050320;28;20028;-43
2022/12/18 09:04:53;;;;;;;36.42;15.52;;;;;;;-1.23;63.07;102701.25;5050757;28;20044;-43
2022/12/18 09:07:18;;;;;;;36.00;15.38;;;;;;;-1.38;63.49;102696.41;5051084;28;20120;-41
2022/12/18 09:09:44;;;;;;;34.60;15.55;;;;;;;-1.17;63.60;102690.66;5049091;28;20031;-44
2022/12/18 09:12:09;;;;;;;35.70;15.75;;;;;;;-0.94;62.87;102688.47;5050026;28;20025;-43
2022/12/18 09:14:35;;;;;;;35.17;16.17;;;;;;;-1.02;63.36;102674.09;5049671;28;20028;-46
2022/12/18 09:17:01;;;;;;;37.45;15.50;;;;;;;-0.91;62.97;102660.56;5048862;28;20448;-44
2022/12/18 09:19:26;;;;;;;37.85;16.05;;;;;;;-0.70;62.57;102646.19;5050288;28;20025;-42
2022/12/18 09:21:51;;;;;;;36.35;16.48;;;;;;;-0.35;61.54;102641.50;5049852;28;20053;-42
2022/12/18 09:24:17;;;;;;;33.80;15.25;;;;;;;-0.44;61.77;102644.19;5049743;28;20389;-48
2022/12/18 09:26:43;;;;;;;32.60;15.55;;;;;;;-0.34;61.01;102640.75;5049854;28;20029;-42
2022/12/18 09:29:09;;;;;;;34.13;15.68;;;;;;;-0.64;61.99;102644.16;5050306;28;20082;-42
2022/12/18 09:31:35;;;;;;;36.13;15.20;;;;;;;-0.63;62.45;102645.94;5050023;28;20048;-43
2022/12/18 09:34:00;;;;;;;34.58;15.10;;;;;;;-0.66;62.37;102645.66;5066490;22;20041;-41
2022/12/18 09:36:25;;;;;;;36.40;16.52;;;;;;;-0.31;61.72;102638.44;5054163;28;20147;-44
2022/12/18 09:38:51;;;;;;;36.63;15.68;;;;;;;-0.34;62.21;102639.84;5054152;28;20021;-40
2022/12/18 09:41:22;;;;;;;35.47;16.08;;;;;;;-0.06;61.29;102641.38;5053035;28;20079;-42
2022/12/18 09:43:56;;;;;;;38.97;15.93;;;;;;;-0.47;61.96;102641.34;5053837;28;20176;-41
2022/12/18 09:46:30;;;;;;;35.92;16.40;;;;;;;-0.13;61.73;102647.69;5053457;28;20143;-45
2022/12/18 09:49:01;;;;;;;33.30;14.98;;;;;;;-0.16;61.96;102662.81;5051069;28;20437;-41
2022/12/18 09:51:32;;;;;;;31.08;14.90;;;;;;;-0.44;62.44;102648.44;5050694;28;20024;-41
2022/12/18 09:54:06;;;;;;;33.83;15.73;;;;;;;-0.23;62.30;102652.78;5051125;28;20033;-41
2022/12/18 09:56:37;;;;;;;36.70;15.47;;;;;;;0.11;61.48;102648.84;5050162;28;20028;-40
2022/12/18 09:59:04;;;;;;;33.42;16.23;;;;;;;-0.07;61.69;102644.75;5052249;28;20342;-42
2022/12/18 10:01:31;;;;;;;36.38;16.50;;;;;;;-0.31;62.64;102642.69;5053473;28;20021;-42
2022/12/18 10:03:57;;;;;;;35.10;16.38;;;;;;;0.02;61.68;102640.38;5054395;28;20029;-42
2022/12/18 10:06:54;;;;;;;37.28;15.88;;;;;;;-0.03;61.48;102636.53;5054006;28;20438;-41
2022/12/18 10:10:05;;;;;;;33.58;15.82;;;;;;;-0.29;61.96;102636.00;5054299;28;20123;-43
2022/12/18 10:12:58;;;;;;;34.20;15.13;;;;;;;-0.04;61.54;102629.59;5050198;28;20116;-41
2022/12/18 10:15:32;;;;;;;32.53;15.55;;;;;;;0.14;61.04;102623.44;5054190;28;20029;-41
2022/12/18 10:18:02;;;;;;;34.97;15.60;;;;;;;0.16;61.27;102623.56;5053496;28;20025;-42
2022/12/18 10:20:50;;;;;;;35.72;15.20;;;;;;;-0.27;61.95;102617.44;5052683;28;20071;-41
2022/12/18 10:23:43;;;;;;;34.55;15.27;;;;;;;0.21;61.48;102618.06;5052716;28;20032;-40
2022/12/18 10:26:14;;;;;;;34.80;15.80;;;;;;;0.69;59.86;102609.97;5053443;28;20603;-44
2022/12/18 10:28:41;;;;;;;35.17;15.95;;;;;;;0.64;61.09;102608.72;5052989;28;20021;-41
2022/12/18 10:31:18;;;;;;;36.95;15.85;;;;;;;0.69;60.12;102604.84;5052630;28;20052;-44
2022/12/18 10:33:44;;;;;;;33.47;14.95;;;;;;;0.46;60.78;102595.31;5052954;28;20436;-41
2022/12/18 10:36:09;;;;;;;34.05;15.50;;;;;;;0.73;60.12;102594.94;5053283;28;20017;-42
2022/12/18 10:38:35;;;;;;;33.53;15.40;;;;;;;0.65;60.02;102593.44;5052755;28;20029;-41
2022/12/18 10:41:04;;;;;;;34.17;16.08;;;;;;;0.90;59.77;102604.00;5053076;28;20397;-41
2022/12/18 10:43:32;;;;;;;35.47;15.57;;;;;;;0.36;61.13;102596.25;5052887;28;20028;-40
2022/12/18 10:46:19;;;;;;;35.13;16.15;;;;;;;0.69;60.60;102587.78;5052883;28;20436;-43
2022/12/18 10:48:47;;;;;;;35.88;15.68;;;;;;;1.14;59.70;102598.25;5052648;28;20028;-40
2022/12/18 10:51:24;;;;;;;33.53;15.75;;;;;;;1.06;60.29;102595.84;5052880;28;20029;-39
2022/12/18 10:53:59;;;;;;;31.98;15.02;;;;;;;1.07;60.37;102589.94;5052597;28;20029;-41
2022/12/18 10:56:27;;;;;;;33.85;16.10;;;;;;;1.48;59.08;102596.59;5053017;28;20017;-41
2022/12/18 10:58:58;;;;;;;31.75;15.35;;;;;;;1.26;59.89;102590.59;5052676;28;20025;-42
2022/12/18 11:01:23;;;;;;;33.30;15.45;;;;;;;1.07;59.68;102592.50;5052162;28;20028;-41
2022/12/18 11:03:55;;;;;;;32.08;15.55;;;;;;;1.32;58.73;102593.63;5052418;28;20032;-40
2022/12/18 11:06:24;;;;;;;32.38;15.27;;;;;;;1.35;60.06;102587.81;5052521;28;20033;-42
2022/12/18 11:09:18;;;;;;;33.63;16.75;;;;;;;1.35;59.15;102583.56;5052307;28;20017;-42
2022/12/18 11:11:49;;;;;;;32.78;15.73;;;;;;;1.20;59.11;102580.75;5051586;28;20060;-41
2022/12/18 11:14:30;;;;;;;32.83;15.15;;;;;;;1.59;59.59;102587.13;5052864;28;20370;-41
2022/12/18 11:16:58;;;;;;;31.25;14.75;;;;;;;1.13;60.13;102580.13;5054937;28;20044;-43
2022/12/18 11:19:24;;;;;;;35.72;16.05;;;;;;;1.49;59.83;102595.81;5052776;28;20154;-42
2022/12/18 11:21:50;;;;;;;30.70;15.27;;;;;;;1.67;59.14;102573.19;5052273;28;20029;-41
2022/12/18 11:24:28;;;;;;;32.38;15.63;;;;;;;1.34;59.37;102562.94;5055091;28;20576;-42